Terminal Aerodrome Forecast
Issued by NWS Newport/Morehead City, NC

Home | Current Version | Previous Version | Text Only | Print | Product List | Glossary Off
Versions: 1 2 3 4 5 6 7 8 9 10 11 12 13 14 15 16 17 18 19 20

000
FTUS42 KMHX 012331
TAFEWN
TAF
KEWN 012331Z 0200/0224 30004KT 5SM -RADZ BKN005 OVC015
     FM020700 25003KT 3SM BR OVC005
     FM021400 30006KT P6SM SCT006 OVC025
     FM021800 35010KT P6SM SCT025 BKN050=

USA.gov is the U.S. government's official web portal to all federal, state and local government web resources and services.